sensor_id;sensor_type;location;lat;lon;timestamp;P1;durP1;ratioP1;P2;durP2;ratioP2
33162;SDS011;29282;45.656;11.302;2023-05-21T00:00:44;11.30;;;6.97;;
33162;SDS011;29282;45.656;11.302;2023-05-21T00:03:09;8.05;;;6.50;;
33162;SDS011;29282;45.656;11.302;2023-05-21T00:05:38;11.75;;;7.32;;
33162;SDS011;29282;45.656;11.302;2023-05-21T00:08:04;9.13;;;7.05;;
33162;SDS011;29282;45.656;11.302;2023-05-21T00:10:30;9.43;;;7.15;;
33162;SDS011;29282;45.656;11.302;2023-05-21T00:12:56;9.75;;;7.13;;
33162;SDS011;29282;45.656;11.302;2023-05-21T00:15:21;10.25;;;7.68;;
33162;SDS011;29282;45.656;11.302;2023-05-21T00:17:47;7.50;;;6.80;;
33162;SDS011;29282;45.656;11.302;2023-05-21T00:20:12;7.95;;;6.95;;
33162;SDS011;29282;45.656;11.302;2023-05-21T00:22:37;7.93;;;7.00;;
33162;SDS011;29282;45.656;11.302;2023-05-21T00:25:04;10.60;;;7.47;;
33162;SDS011;29282;45.656;11.302;2023-05-21T00:27:30;9.02;;;7.15;;
33162;SDS011;29282;45.656;11.302;2023-05-21T00:29:55;7.82;;;6.97;;
33162;SDS011;29282;45.656;11.302;2023-05-21T00:32:21;10.75;;;7.45;;
33162;SDS011;29282;45.656;11.302;2023-05-21T00:34:46;7.95;;;7.13;;
33162;SDS011;29282;45.656;11.302;2023-05-21T00:37:12;8.40;;;7.18;;
33162;SDS011;29282;45.656;11.302;2023-05-21T00:39:39;8.52;;;7.32;;
33162;SDS011;29282;45.656;11.302;2023-05-21T00:42:05;8.38;;;6.53;;
33162;SDS011;29282;45.656;11.302;2023-05-21T00:44:30;8.07;;;6.82;;
33162;SDS011;29282;45.656;11.302;2023-05-21T00:46:59;7.97;;;7.03;;
33162;SDS011;29282;45.656;11.302;2023-05-21T00:49:26;7.53;;;6.38;;
33162;SDS011;29282;45.656;11.302;2023-05-21T00:51:52;8.73;;;6.50;;
33162;SDS011;29282;45.656;11.302;2023-05-21T00:54:19;7.55;;;6.75;;
33162;SDS011;29282;45.656;11.302;2023-05-21T00:56:44;7.63;;;6.78;;
33162;SDS011;29282;45.656;11.302;2023-05-21T00:59:11;8.20;;;7.18;;
33162;SDS011;29282;45.656;11.302;2023-05-21T01:01:37;7.60;;;6.90;;
33162;SDS011;29282;45.656;11.302;2023-05-21T01:04:02;7.45;;;6.63;;
33162;SDS011;29282;45.656;11.302;2023-05-21T01:06:28;7.45;;;6.70;;
33162;SDS011;29282;45.656;11.302;2023-05-21T01:08:54;8.70;;;6.95;;
33162;SDS011;29282;45.656;11.302;2023-05-21T01:11:21;6.85;;;6.15;;
33162;SDS011;29282;45.656;11.302;2023-05-21T01:13:57;7.15;;;6.40;;
33162;SDS011;29282;45.656;11.302;2023-05-21T01:16:23;7.85;;;6.20;;
33162;SDS011;29282;45.656;11.302;2023-05-21T01:18:48;9.13;;;7.00;;
33162;SDS011;29282;45.656;11.302;2023-05-21T01:21:15;8.70;;;7.15;;
33162;SDS011;29282;45.656;11.302;2023-05-21T01:23:42;6.72;;;6.00;;
33162;SDS011;29282;45.656;11.302;2023-05-21T01:26:07;7.72;;;6.93;;
33162;SDS011;29282;45.656;11.302;2023-05-21T01:28:36;8.45;;;6.53;;
33162;SDS011;29282;45.656;11.302;2023-05-21T01:31:03;7.85;;;6.75;;
33162;SDS011;29282;45.656;11.302;2023-05-21T01:33:48;9.73;;;6.68;;
33162;SDS011;29282;45.656;11.302;2023-05-21T01:38:48;7.88;;;7.07;;
33162;SDS011;29282;45.656;11.302;2023-05-21T01:41:16;7.78;;;6.90;;
33162;SDS011;29282;45.656;11.302;2023-05-21T01:43:44;9.95;;;6.78;;
33162;SDS011;29282;45.656;11.302;2023-05-21T01:46:12;7.22;;;6.53;;
33162;SDS011;29282;45.656;11.302;2023-05-21T01:48:40;7.65;;;6.82;;
33162;SDS011;29282;45.656;11.302;2023-05-21T01:51:07;8.60;;;6.93;;
33162;SDS011;29282;45.656;11.302;2023-05-21T01:53:32;7.45;;;6.40;;
33162;SDS011;29282;45.656;11.302;2023-05-21T01:55:58;8.20;;;6.95;;
33162;SDS011;29282;45.656;11.302;2023-05-21T01:58:23;7.32;;;6.63;;
33162;SDS011;29282;45.656;11.302;2023-05-21T02:00:49;7.30;;;6.28;;
33162;SDS011;29282;45.656;11.302;2023-05-21T02:03:18;7.57;;;6.55;;
33162;SDS011;29282;45.656;11.302;2023-05-21T02:05:44;8.55;;;6.97;;
33162;SDS011;29282;45.656;11.302;2023-05-21T02:08:09;7.75;;;6.50;;
33162;SDS011;29282;45.656;11.302;2023-05-21T02:10:36;7.50;;;6.78;;
33162;SDS011;29282;45.656;11.302;2023-05-21T02:13:02;9.35;;;6.88;;
33162;SDS011;29282;45.656;11.302;2023-05-21T02:15:27;8.68;;;7.07;;
33162;SDS011;29282;45.656;11.302;2023-05-21T02:17:53;7.10;;;6.40;;
33162;SDS011;29282;45.656;11.302;2023-05-21T02:20:19;7.43;;;6.47;;
33162;SDS011;29282;45.656;11.302;2023-05-21T02:22:46;7.35;;;6.60;;
33162;SDS011;29282;45.656;11.302;2023-05-21T02:25:13;6.85;;;6.18;;
33162;SDS011;29282;45.656;11.302;2023-05-21T02:27:41;7.28;;;6.57;;
33162;SDS011;29282;45.656;11.302;2023-05-21T02:30:07;6.72;;;6.05;;
33162;SDS011;29282;45.656;11.302;2023-05-21T02:32:35;6.90;;;6.20;;
33162;SDS011;29282;45.656;11.302;2023-05-21T02:35:01;8.40;;;6.70;;
33162;SDS011;29282;45.656;11.302;2023-05-21T02:37:28;7.32;;;6.43;;
33162;SDS011;29282;45.656;11.302;2023-05-21T02:39:54;8.13;;;5.82;;
33162;SDS011;29282;45.656;11.302;2023-05-21T02:42:23;6.82;;;6.13;;
33162;SDS011;29282;45.656;11.302;2023-05-21T02:44:49;7.80;;;6.43;;
33162;SDS011;29282;45.656;11.302;2023-05-21T02:47:18;7.72;;;6.57;;
33162;SDS011;29282;45.656;11.302;2023-05-21T02:49:44;7.25;;;6.55;;
33162;SDS011;29282;45.656;11.302;2023-05-21T02:52:10;8.15;;;6.80;;
33162;SDS011;29282;45.656;11.302;2023-05-21T02:54:35;7.03;;;6.32;;
33162;SDS011;29282;45.656;11.302;2023-05-21T02:57:01;7.20;;;6.50;;
33162;SDS011;29282;45.656;11.302;2023-05-21T02:59:26;7.22;;;6.53;;
33162;SDS011;29282;45.656;11.302;2023-05-21T03:01:52;7.40;;;6.53;;
33162;SDS011;29282;45.656;11.302;2023-05-21T03:04:17;7.82;;;6.50;;
33162;SDS011;29282;45.656;11.302;2023-05-21T03:06:45;7.28;;;6.40;;
33162;SDS011;29282;45.656;11.302;2023-05-21T03:09:11;7.20;;;6.50;;
33162;SDS011;29282;45.656;11.302;2023-05-21T03:11:37;7.80;;;6.53;;
33162;SDS011;29282;45.656;11.302;2023-05-21T03:14:02;7.10;;;6.40;;
33162;SDS011;29282;45.656;11.302;2023-05-21T03:16:27;7.40;;;6.70;;
33162;SDS011;29282;45.656;11.302;2023-05-21T03:18:53;6.75;;;6.15;;
33162;SDS011;29282;45.656;11.302;2023-05-21T03:21:18;7.50;;;6.70;;
33162;SDS011;29282;45.656;11.302;2023-05-21T03:23:47;7.18;;;6.35;;
33162;SDS011;29282;45.656;11.302;2023-05-21T03:26:13;8.13;;;6.55;;
33162;SDS011;29282;45.656;11.302;2023-05-21T03:28:38;7.47;;;6.60;;
33162;SDS011;29282;45.656;11.302;2023-05-21T03:31:03;6.53;;;5.88;;
33162;SDS011;29282;45.656;11.302;2023-05-21T03:33:29;6.63;;;6.00;;
33162;SDS011;29282;45.656;11.302;2023-05-21T03:35:55;7.85;;;6.72;;
33162;SDS011;29282;45.656;11.302;2023-05-21T03:38:20;7.13;;;6.28;;
33162;SDS011;29282;45.656;11.302;2023-05-21T03:40:45;7.20;;;6.50;;
33162;SDS011;29282;45.656;11.302;2023-05-21T03:43:11;6.93;;;6.15;;
33162;SDS011;29282;45.656;11.302;2023-05-21T03:45:37;8.88;;;6.60;;
33162;SDS011;29282;45.656;11.302;2023-05-21T03:48:02;7.07;;;6.20;;
33162;SDS011;29282;45.656;11.302;2023-05-21T03:50:28;6.30;;;5.70;;
33162;SDS011;29282;45.656;11.302;2023-05-21T03:52:53;7.35;;;6.65;;
33162;SDS011;29282;45.656;11.302;2023-05-21T03:55:18;7.47;;;6.72;;
33162;SDS011;29282;45.656;11.302;2023-05-21T03:57:44;7.07;;;6.40;;
33162;SDS011;29282;45.656;11.302;2023-05-21T04:00:09;7.20;;;6.10;;
33162;SDS011;29282;45.656;11.302;2023-05-21T04:02:35;8.38;;;6.38;;
33162;SDS011;29282;45.656;11.302;2023-05-21T04:05:00;6.88;;;6.18;;
33162;SDS011;29282;45.656;11.302;2023-05-21T04:07:27;7.25;;;6.20;;
33162;SDS011;29282;45.656;11.302;2023-05-21T04:09:54;7.35;;;6.65;;
33162;SDS011;29282;45.656;11.302;2023-05-21T04:12:19;7.38;;;6.68;;
33162;SDS011;29282;45.656;11.302;2023-05-21T04:14:45;6.32;;;5.68;;
33162;SDS011;29282;45.656;11.302;2023-05-21T04:17:11;7.10;;;6.40;;
33162;SDS011;29282;45.656;11.302;2023-05-21T04:19:39;6.40;;;5.78;;
33162;SDS011;29282;45.656;11.302;2023-05-21T04:22:06;6.63;;;5.93;;
33162;SDS011;29282;45.656;11.302;2023-05-21T04:24:31;6.50;;;5.80;;
33162;SDS011;29282;45.656;11.302;2023-05-21T04:26:57;6.63;;;5.95;;
33162;SDS011;29282;45.656;11.302;2023-05-21T04:29:25;6.63;;;6.00;;
33162;SDS011;29282;45.656;11.302;2023-05-21T04:31:51;6.75;;;6.15;;
33162;SDS011;29282;45.656;11.302;2023-05-21T04:34:17;6.80;;;6.20;;
33162;SDS011;29282;45.656;11.302;2023-05-21T04:36:43;7.60;;;6.40;;
33162;SDS011;29282;45.656;11.302;2023-05-21T04:39:09;7.28;;;6.45;;
33162;SDS011;29282;45.656;11.302;2023-05-21T04:41:36;7.25;;;6.55;;
33162;SDS011;29282;45.656;11.302;2023-05-21T04:44:03;7.80;;;6.53;;
33162;SDS011;29282;45.656;11.302;2023-05-21T04:46:29;7.10;;;6.25;;
33162;SDS011;29282;45.656;11.302;2023-05-21T04:48:55;7.43;;;6.60;;
33162;SDS011;29282;45.656;11.302;2023-05-21T04:51:22;7.40;;;6.70;;
33162;SDS011;29282;45.656;11.302;2023-05-21T04:53:48;6.85;;;6.15;;
33162;SDS011;29282;45.656;11.302;2023-05-21T04:56:17;6.90;;;6.20;;
33162;SDS011;29282;45.656;11.302;2023-05-21T04:58:43;6.85;;;6.15;;
33162;SDS011;29282;45.656;11.302;2023-05-21T05:01:09;6.93;;;6.22;;
33162;SDS011;29282;45.656;11.302;2023-05-21T05:03:36;7.97;;;7.18;;
33162;SDS011;29282;45.656;11.302;2023-05-21T05:06:02;6.93;;;6.22;;
33162;SDS011;29282;45.656;11.302;2023-05-21T05:08:28;6.50;;;5.82;;
33162;SDS011;29282;45.656;11.302;2023-05-21T05:10:54;7.10;;;6.07;;
33162;SDS011;29282;45.656;11.302;2023-05-21T05:13:19;7.28;;;6.47;;
33162;SDS011;29282;45.656;11.302;2023-05-21T05:15:45;7.35;;;6.65;;
33162;SDS011;29282;45.656;11.302;2023-05-21T05:18:10;7.35;;;6.65;;
33162;SDS011;29282;45.656;11.302;2023-05-21T05:20:36;6.80;;;6.20;;
33162;SDS011;29282;45.656;11.302;2023-05-21T05:23:02;6.78;;;6.07;;
33162;SDS011;29282;45.656;11.302;2023-05-21T05:25:27;6.78;;;6.18;;
33162;SDS011;29282;45.656;11.302;2023-05-21T05:27:52;7.18;;;6.20;;
33162;SDS011;29282;45.656;11.302;2023-05-21T05:30:18;6.38;;;5.78;;
33162;SDS011;29282;45.656;11.302;2023-05-21T05:32:44;6.25;;;5.65;;
33162;SDS011;29282;45.656;11.302;2023-05-21T05:35:10;6.53;;;5.93;;
33162;SDS011;29282;45.656;11.302;2023-05-21T05:37:36;7.47;;;6.68;;
33162;SDS011;29282;45.656;11.302;2023-05-21T05:40:02;7.32;;;6.32;;
33162;SDS011;29282;45.656;11.302;2023-05-21T05:42:29;6.55;;;5.95;;
33162;SDS011;29282;45.656;11.302;2023-05-21T05:44:54;7.90;;;6.20;;
33162;SDS011;29282;45.656;11.302;2023-05-21T05:47:20;6.57;;;5.88;;
33162;SDS011;29282;45.656;11.302;2023-05-21T05:49:46;7.20;;;6.50;;
33162;SDS011;29282;45.656;11.302;2023-05-21T05:52:11;7.15;;;6.30;;
33162;SDS011;29282;45.656;11.302;2023-05-21T05:54:37;6.55;;;5.95;;
33162;SDS011;29282;45.656;11.302;2023-05-21T05:57:03;6.82;;;6.13;;
33162;SDS011;29282;45.656;11.302;2023-05-21T05:59:28;6.90;;;6.13;;
33162;SDS011;29282;45.656;11.302;2023-05-21T06:01:53;6.90;;;6.20;;
33162;SDS011;29282;45.656;11.302;2023-05-21T06:04:19;7.65;;;6.60;;
33162;SDS011;29282;45.656;11.302;2023-05-21T06:06:44;7.30;;;6.60;;
33162;SDS011;29282;45.656;11.302;2023-05-21T06:09:11;7.03;;;5.80;;
33162;SDS011;29282;45.656;11.302;2023-05-21T06:11:36;6.32;;;5.75;;
33162;SDS011;29282;45.656;11.302;2023-05-21T06:14:02;7.18;;;6.32;;
33162;SDS011;29282;45.656;11.302;2023-05-21T06:16:28;6.93;;;6.28;;
33162;SDS011;29282;45.656;11.302;2023-05-21T06:18:55;6.78;;;6.07;;
33162;SDS011;29282;45.656;11.302;2023-05-21T06:21:21;6.97;;;6.28;;
33162;SDS011;29282;45.656;11.302;2023-05-21T06:23:46;6.68;;;6.07;;
33162;SDS011;29282;45.656;11.302;2023-05-21T06:26:12;6.90;;;6.20;;
33162;SDS011;29282;45.656;11.302;2023-05-21T06:28:37;6.80;;;6.10;;
33162;SDS011;29282;45.656;11.302;2023-05-21T06:31:03;6.40;;;5.80;;
33162;SDS011;29282;45.656;11.302;2023-05-21T06:33:28;6.97;;;6.30;;
33162;SDS011;29282;45.656;11.302;2023-05-21T06:35:54;6.35;;;5.75;;
33162;SDS011;29282;45.656;11.302;2023-05-21T06:38:19;6.82;;;6.15;;
33162;SDS011;29282;45.656;11.302;2023-05-21T06:40:45;6.97;;;6.30;;
33162;SDS011;29282;45.656;11.302;2023-05-21T06:43:12;7.45;;;5.82;;
33162;SDS011;29282;45.656;11.302;2023-05-21T06:45:38;7.55;;;6.72;;
33162;SDS011;29282;45.656;11.302;2023-05-21T06:48:03;7.43;;;6.40;;
33162;SDS011;29282;45.656;11.302;2023-05-21T06:50:29;7.13;;;6.30;;
33162;SDS011;29282;45.656;11.302;2023-05-21T06:52:55;6.97;;;6.18;;
33162;SDS011;29282;45.656;11.302;2023-05-21T06:55:20;7.07;;;5.93;;
33162;SDS011;29282;45.656;11.302;2023-05-21T06:57:46;6.57;;;5.97;;
33162;SDS011;29282;45.656;11.302;2023-05-21T07:00:12;11.25;;;7.10;;
33162;SDS011;29282;45.656;11.302;2023-05-21T07:02:38;8.05;;;5.93;;
33162;SDS011;29282;45.656;11.302;2023-05-21T07:05:03;7.90;;;6.07;;
33162;SDS011;29282;45.656;11.302;2023-05-21T07:07:29;7.90;;;6.15;;
33162;SDS011;29282;45.656;11.302;2023-05-21T07:09:54;7.97;;;6.20;;
33162;SDS011;29282;45.656;11.302;2023-05-21T07:12:20;6.35;;;5.75;;
33162;SDS011;29282;45.656;11.302;2023-05-21T07:14:45;6.97;;;6.38;;
33162;SDS011;29282;45.656;11.302;2023-05-21T07:17:11;6.72;;;5.75;;
33162;SDS011;29282;45.656;11.302;2023-05-21T07:19:36;7.63;;;6.13;;
33162;SDS011;29282;45.656;11.302;2023-05-21T07:22:02;7.22;;;6.20;;
33162;SDS011;29282;45.656;11.302;2023-05-21T07:24:28;5.95;;;5.35;;
33162;SDS011;29282;45.656;11.302;2023-05-21T07:26:54;6.30;;;5.70;;
33162;SDS011;29282;45.656;11.302;2023-05-21T07:29:19;6.80;;;6.00;;
33162;SDS011;29282;45.656;11.302;2023-05-21T07:31:45;8.40;;;6.72;;
33162;SDS011;29282;45.656;11.302;2023-05-21T07:34:10;6.95;;;6.25;;
33162;SDS011;29282;45.656;11.302;2023-05-21T07:36:36;6.85;;;6.10;;
33162;SDS011;29282;45.656;11.302;2023-05-21T07:39:01;7.10;;;5.72;;
33162;SDS011;29282;45.656;11.302;2023-05-21T07:41:27;7.00;;;6.13;;
33162;SDS011;29282;45.656;11.302;2023-05-21T07:43:52;6.80;;;6.10;;
33162;SDS011;29282;45.656;11.302;2023-05-21T07:46:18;8.43;;;6.05;;
33162;SDS011;29282;45.656;11.302;2023-05-21T07:48:43;8.38;;;6.10;;
33162;SDS011;29282;45.656;11.302;2023-05-21T07:51:09;6.53;;;5.93;;
33162;SDS011;29282;45.656;11.302;2023-05-21T07:53:35;6.20;;;5.65;;
33162;SDS011;29282;45.656;11.302;2023-05-21T07:56:00;6.95;;;6.03;;
33162;SDS011;29282;45.656;11.302;2023-05-21T07:58:26;7.13;;;5.82;;
33162;SDS011;29282;45.656;11.302;2023-05-21T08:00:51;6.78;;;5.57;;
33162;SDS011;29282;45.656;11.302;2023-05-21T08:03:17;7.30;;;6.50;;
33162;SDS011;29282;45.656;11.302;2023-05-21T08:05:43;6.30;;;5.70;;
33162;SDS011;29282;45.656;11.302;2023-05-21T08:08:13;9.65;;;6.47;;
33162;SDS011;29282;45.656;11.302;2023-05-21T08:10:42;8.52;;;6.38;;
33162;SDS011;29282;45.656;11.302;2023-05-21T08:13:09;8.57;;;6.53;;
33162;SDS011;29282;45.656;11.302;2023-05-21T08:15:35;8.73;;;6.15;;
33162;SDS011;29282;45.656;11.302;2023-05-21T08:18:01;7.28;;;6.45;;
33162;SDS011;29282;45.656;11.302;2023-05-21T08:20:26;11.80;;;7.22;;
33162;SDS011;29282;45.656;11.302;2023-05-21T08:22:53;7.47;;;6.65;;
33162;SDS011;29282;45.656;11.302;2023-05-21T08:25:18;8.02;;;6.18;;
33162;SDS011;29282;45.656;11.302;2023-05-21T08:27:44;7.13;;;6.28;;
33162;SDS011;29282;45.656;11.302;2023-05-21T08:30:09;9.32;;;6.00;;
33162;SDS011;29282;45.656;11.302;2023-05-21T08:32:35;8.88;;;6.00;;
33162;SDS011;29282;45.656;11.302;2023-05-21T08:35:01;6.78;;;6.07;;
33162;SDS011;29282;45.656;11.302;2023-05-21T08:37:27;8.05;;;6.20;;
33162;SDS011;29282;45.656;11.302;2023-05-21T08:39:53;7.65;;;6.28;;
33162;SDS011;29282;45.656;11.302;2023-05-21T08:45:04;11.45;;;6.68;;
33162;SDS011;29282;45.656;11.302;2023-05-21T08:47:31;10.70;;;5.80;;
33162;SDS011;29282;45.656;11.302;2023-05-21T08:49:59;9.77;;;6.68;;
33162;SDS011;29282;45.656;11.302;2023-05-21T08:52:25;7.93;;;5.82;;
33162;SDS011;29282;45.656;11.302;2023-05-21T08:54:51;10.25;;;6.13;;
33162;SDS011;29282;45.656;11.302;2023-05-21T08:57:18;8.95;;;6.30;;
33162;SDS011;29282;45.656;11.302;2023-05-21T08:59:44;7.55;;;6.78;;
33162;SDS011;29282;45.656;11.302;2023-05-21T09:02:11;11.48;;;7.03;;
33162;SDS011;29282;45.656;11.302;2023-05-21T09:04:41;9.52;;;7.50;;
33162;SDS011;29282;45.656;11.302;2023-05-21T09:07:07;7.78;;;6.97;;
33162;SDS011;29282;45.656;11.302;2023-05-21T09:09:42;13.10;;;7.85;;
33162;SDS011;29282;45.656;11.302;2023-05-21T09:14:44;10.43;;;8.65;;
33162;SDS011;29282;45.656;11.302;2023-05-21T09:17:14;15.30;;;9.98;;
33162;SDS011;29282;45.656;11.302;2023-05-21T09:22:45;20.13;;;10.20;;
33162;SDS011;29282;45.656;11.302;2023-05-21T09:25:15;25.33;;;10.55;;
33162;SDS011;29282;45.656;11.302;2023-05-21T09:27:47;10.77;;;9.02;;
33162;SDS011;29282;45.656;11.302;2023-05-21T09:30:13;13.38;;;9.00;;
33162;SDS011;29282;45.656;11.302;2023-05-21T09:32:43;13.23;;;9.63;;
33162;SDS011;29282;45.656;11.302;2023-05-21T09:37:41;11.07;;;9.30;;
33162;SDS011;29282;45.656;11.302;2023-05-21T09:40:18;12.00;;;9.65;;
33162;SDS011;29282;45.656;11.302;2023-05-21T09:42:53;12.82;;;10.25;;
33162;SDS011;29282;45.656;11.302;2023-05-21T09:47:48;11.55;;;9.50;;
33162;SDS011;29282;45.656;11.302;2023-05-21T09:50:22;12.68;;;9.68;;
33162;SDS011;29282;45.656;11.302;2023-05-21T09:52:49;13.70;;;10.35;;
33162;SDS011;29282;45.656;11.302;2023-05-21T09:55:17;11.50;;;8.73;;
33162;SDS011;29282;45.656;11.302;2023-05-21T09:57:46;11.68;;;9.32;;
33162;SDS011;29282;45.656;11.302;2023-05-21T10:00:17;12.93;;;9.45;;
33162;SDS011;29282;45.656;11.302;2023-05-21T10:02:45;14.00;;;9.70;;
33162;SDS011;29282;45.656;11.302;2023-05-21T10:05:17;13.63;;;9.25;;
33162;SDS011;29282;45.656;11.302;2023-05-21T10:07:51;19.00;;;9.25;;
33162;SDS011;29282;45.656;11.302;2023-05-21T10:10:18;21.87;;;10.10;;
33162;SDS011;29282;45.656;11.302;2023-05-21T10:12:47;27.83;;;9.85;;
33162;SDS011;29282;45.656;11.302;2023-05-21T10:15:18;19.92;;;8.25;;
33162;SDS011;29282;45.656;11.302;2023-05-21T10:17:47;20.30;;;9.13;;
33162;SDS011;29282;45.656;11.302;2023-05-21T10:20:14;13.70;;;9.75;;
33162;SDS011;29282;45.656;11.302;2023-05-21T10:22:40;19.38;;;9.48;;
33162;SDS011;29282;45.656;11.302;2023-05-21T10:25:06;15.30;;;8.70;;
33162;SDS011;29282;45.656;11.302;2023-05-21T10:27:33;12.45;;;7.85;;
33162;SDS011;29282;45.656;11.302;2023-05-21T10:30:00;12.00;;;7.55;;
33162;SDS011;29282;45.656;11.302;2023-05-21T10:32:26;11.68;;;8.57;;
33162;SDS011;29282;45.656;11.302;2023-05-21T10:34:52;12.05;;;8.05;;
33162;SDS011;29282;45.656;11.302;2023-05-21T10:37:18;10.75;;;7.57;;
33162;SDS011;29282;45.656;11.302;2023-05-21T10:39:47;11.57;;;8.05;;
33162;SDS011;29282;45.656;11.302;2023-05-21T10:56:21;8.77;;;7.22;;
33162;SDS011;29282;45.656;11.302;2023-05-21T11:01:15;10.25;;;8.05;;
33162;SDS011;29282;45.656;11.302;2023-05-21T11:03:43;10.68;;;7.28;;
33162;SDS011;29282;45.656;11.302;2023-05-21T11:06:10;9.10;;;7.10;;
33162;SDS011;29282;45.656;11.302;2023-05-21T11:08:46;15.80;;;7.97;;
33162;SDS011;29282;45.656;11.302;2023-05-21T11:11:11;16.60;;;7.47;;
33162;SDS011;29282;45.656;11.302;2023-05-21T11:13:45;12.65;;;7.28;;
33162;SDS011;29282;45.656;11.302;2023-05-21T11:16:13;12.05;;;7.85;;
33162;SDS011;29282;45.656;11.302;2023-05-21T11:21:06;11.50;;;7.25;;
33162;SDS011;29282;45.656;11.302;2023-05-21T11:23:55;10.55;;;6.90;;
33162;SDS011;29282;45.656;11.302;2023-05-21T11:29:14;10.55;;;7.28;;
33162;SDS011;29282;45.656;11.302;2023-05-21T11:31:45;11.48;;;7.80;;
33162;SDS011;29282;45.656;11.302;2023-05-21T11:34:25;10.70;;;7.45;;
33162;SDS011;29282;45.656;11.302;2023-05-21T11:39:56;12.73;;;7.35;;
33162;SDS011;29282;45.656;11.302;2023-05-21T11:42:39;9.52;;;7.63;;
33162;SDS011;29282;45.656;11.302;2023-05-21T11:45:06;11.35;;;7.10;;
33162;SDS011;29282;45.656;11.302;2023-05-21T11:47:32;11.07;;;7.30;;
33162;SDS011;29282;45.656;11.302;2023-05-21T11:49:58;9.68;;;7.50;;
33162;SDS011;29282;45.656;11.302;2023-05-21T11:52:27;9.00;;;7.18;;
33162;SDS011;29282;45.656;11.302;2023-05-21T11:54:53;7.85;;;6.75;;
33162;SDS011;29282;45.656;11.302;2023-05-21T11:57:21;9.75;;;6.85;;
33162;SDS011;29282;45.656;11.302;2023-05-21T11:59:48;9.52;;;7.20;;
33162;SDS011;29282;45.656;11.302;2023-05-21T12:02:18;10.40;;;7.63;;
33162;SDS011;29282;45.656;11.302;2023-05-21T12:04:48;7.35;;;6.65;;
33162;SDS011;29282;45.656;11.302;2023-05-21T12:07:15;8.43;;;7.15;;
33162;SDS011;29282;45.656;11.302;2023-05-21T12:09:44;8.48;;;7.20;;
33162;SDS011;29282;45.656;11.302;2023-05-21T12:12:14;9.73;;;7.13;;
33162;SDS011;29282;45.656;11.302;2023-05-21T12:14:42;11.05;;;7.22;;
33162;SDS011;29282;45.656;11.302;2023-05-21T12:17:10;10.57;;;7.15;;
33162;SDS011;29282;45.656;11.302;2023-05-21T12:19:37;10.98;;;7.32;;
33162;SDS011;29282;45.656;11.302;2023-05-21T12:22:04;10.98;;;7.07;;
33162;SDS011;29282;45.656;11.302;2023-05-21T12:24:30;7.90;;;6.28;;
33162;SDS011;29282;45.656;11.302;2023-05-21T12:26:57;10.18;;;7.05;;
33162;SDS011;29282;45.656;11.302;2023-05-21T12:29:27;8.95;;;6.80;;
33162;SDS011;29282;45.656;11.302;2023-05-21T12:31:53;9.10;;;6.95;;
33162;SDS011;29282;45.656;11.302;2023-05-21T12:39:54;9.50;;;7.32;;
33162;SDS011;29282;45.656;11.302;2023-05-21T12:42:23;8.68;;;6.90;;
33162;SDS011;29282;45.656;11.302;2023-05-21T12:44:51;8.13;;;7.20;;
33162;SDS011;29282;45.656;11.302;2023-05-21T12:47:17;10.10;;;7.43;;
33162;SDS011;29282;45.656;11.302;2023-05-21T12:49:44;9.90;;;7.10;;
33162;SDS011;29282;45.656;11.302;2023-05-21T12:52:12;10.07;;;6.78;;
33162;SDS011;29282;45.656;11.302;2023-05-21T12:54:43;9.45;;;6.82;;
33162;SDS011;29282;45.656;11.302;2023-05-21T12:57:20;11.38;;;6.50;;
33162;SDS011;29282;45.656;11.302;2023-05-21T12:59:54;14.45;;;6.97;;
33162;SDS011;29282;45.656;11.302;2023-05-21T13:02:27;10.85;;;6.80;;
33162;SDS011;29282;45.656;11.302;2023-05-21T13:07:21;8.82;;;7.00;;
33162;SDS011;29282;45.656;11.302;2023-05-21T13:09:47;11.63;;;8.13;;
33162;SDS011;29282;45.656;11.302;2023-05-21T13:12:14;9.68;;;7.47;;
33162;SDS011;29282;45.656;11.302;2023-05-21T13:14:39;10.50;;;6.80;;
33162;SDS011;29282;45.656;11.302;2023-05-21T13:17:04;8.32;;;6.88;;
33162;SDS011;29282;45.656;11.302;2023-05-21T13:19:30;10.65;;;7.07;;
33162;SDS011;29282;45.656;11.302;2023-05-21T13:21:55;13.75;;;7.63;;
33162;SDS011;29282;45.656;11.302;2023-05-21T13:24:21;9.88;;;7.20;;
33162;SDS011;29282;45.656;11.302;2023-05-21T13:26:46;8.90;;;6.50;;
33162;SDS011;29282;45.656;11.302;2023-05-21T13:29:12;12.10;;;6.50;;
33162;SDS011;29282;45.656;11.302;2023-05-21T13:31:39;10.95;;;6.40;;
33162;SDS011;29282;45.656;11.302;2023-05-21T13:34:05;10.05;;;6.70;;
33162;SDS011;29282;45.656;11.302;2023-05-21T13:36:32;8.07;;;6.43;;
33162;SDS011;29282;45.656;11.302;2023-05-21T13:38:57;8.75;;;6.10;;
33162;SDS011;29282;45.656;11.302;2023-05-21T13:41:23;7.75;;;6.20;;
33162;SDS011;29282;45.656;11.302;2023-05-21T13:43:48;10.40;;;6.43;;
33162;SDS011;29282;45.656;11.302;2023-05-21T13:46:13;11.10;;;6.68;;
33162;SDS011;29282;45.656;11.302;2023-05-21T13:48:39;8.00;;;6.72;;
33162;SDS011;29282;45.656;11.302;2023-05-21T13:51:06;8.63;;;6.63;;
33162;SDS011;29282;45.656;11.302;2023-05-21T13:53:32;7.28;;;6.10;;
33162;SDS011;29282;45.656;11.302;2023-05-21T13:55:57;9.80;;;6.43;;
33162;SDS011;29282;45.656;11.302;2023-05-21T13:58:23;7.88;;;6.07;;
33162;SDS011;29282;45.656;11.302;2023-05-21T14:00:48;9.38;;;6.15;;
33162;SDS011;29282;45.656;11.302;2023-05-21T14:03:14;9.70;;;6.13;;
33162;SDS011;29282;45.656;11.302;2023-05-21T14:05:39;7.70;;;6.38;;
33162;SDS011;29282;45.656;11.302;2023-05-21T14:08:05;9.90;;;6.55;;
33162;SDS011;29282;45.656;11.302;2023-05-21T14:10:30;7.38;;;6.13;;
33162;SDS011;29282;45.656;11.302;2023-05-21T14:12:56;9.57;;;6.47;;
33162;SDS011;29282;45.656;11.302;2023-05-21T14:15:21;7.20;;;6.50;;
33162;SDS011;29282;45.656;11.302;2023-05-21T14:17:47;8.57;;;6.55;;
33162;SDS011;29282;45.656;11.302;2023-05-21T14:20:12;7.65;;;6.43;;
33162;SDS011;29282;45.656;11.302;2023-05-21T14:22:38;6.97;;;5.80;;
33162;SDS011;29282;45.656;11.302;2023-05-21T14:25:03;9.43;;;6.10;;
33162;SDS011;29282;45.656;11.302;2023-05-21T14:27:29;9.13;;;6.22;;
33162;SDS011;29282;45.656;11.302;2023-05-21T14:29:55;10.90;;;6.07;;
33162;SDS011;29282;45.656;11.302;2023-05-21T14:32:20;8.27;;;6.28;;
33162;SDS011;29282;45.656;11.302;2023-05-21T14:34:45;8.77;;;6.10;;
33162;SDS011;29282;45.656;11.302;2023-05-21T14:37:11;10.00;;;7.00;;
33162;SDS011;29282;45.656;11.302;2023-05-21T14:39:36;8.23;;;6.45;;
33162;SDS011;29282;45.656;11.302;2023-05-21T14:42:02;11.00;;;6.35;;
33162;SDS011;29282;45.656;11.302;2023-05-21T14:44:28;10.32;;;6.70;;
33162;SDS011;29282;45.656;11.302;2023-05-21T14:46:54;8.15;;;6.40;;
33162;SDS011;29282;45.656;11.302;2023-05-21T14:49:19;10.43;;;6.35;;
33162;SDS011;29282;45.656;11.302;2023-05-21T14:51:45;8.80;;;5.72;;
33162;SDS011;29282;45.656;11.302;2023-05-21T14:54:11;8.88;;;6.10;;
33162;SDS011;29282;45.656;11.302;2023-05-21T14:56:37;8.00;;;5.60;;
33162;SDS011;29282;45.656;11.302;2023-05-21T14:59:02;9.95;;;5.68;;
33162;SDS011;29282;45.656;11.302;2023-05-21T15:01:28;8.73;;;5.60;;
33162;SDS011;29282;45.656;11.302;2023-05-21T15:03:54;8.68;;;5.97;;
33162;SDS011;29282;45.656;11.302;2023-05-21T15:06:20;9.25;;;5.90;;
33162;SDS011;29282;45.656;11.302;2023-05-21T15:08:46;7.82;;;5.25;;
33162;SDS011;29282;45.656;11.302;2023-05-21T15:11:11;7.90;;;5.32;;
33162;SDS011;29282;45.656;11.302;2023-05-21T15:13:37;8.43;;;6.18;;
33162;SDS011;29282;45.656;11.302;2023-05-21T15:16:03;11.50;;;5.85;;